sensor_id;sensor_type;location;lat;lon;timestamp;temperature;humidity
674;DHT22;319;48.764;9.174;2022-09-09T00:02:27;18.30;95.70
674;DHT22;319;48.764;9.174;2022-09-09T00:04:59;18.30;95.50
674;DHT22;319;48.764;9.174;2022-09-09T00:07:37;18.30;95.10
674;DHT22;319;48.764;9.174;2022-09-09T00:10:16;18.30;95.10
674;DHT22;319;48.764;9.174;2022-09-09T00:12:51;18.30;95.20
674;DHT22;319;48.764;9.174;2022-09-09T00:15:25;18.40;95.20
674;DHT22;319;48.764;9.174;2022-09-09T00:17:58;18.40;95.50
674;DHT22;319;48.764;9.174;2022-09-09T00:20:31;18.40;95.50
674;DHT22;319;48.764;9.174;2022-09-09T00:23:03;18.50;95.50
674;DHT22;319;48.764;9.174;2022-09-09T00:25:40;18.40;95.30
674;DHT22;319;48.764;9.174;2022-09-09T00:28:15;18.50;95.60
674;DHT22;319;48.764;9.174;2022-09-09T00:30:43;18.40;95.70
674;DHT22;319;48.764;9.174;2022-09-09T00:33:15;18.40;95.30
674;DHT22;319;48.764;9.174;2022-09-09T00:35:45;18.40;95.40
674;DHT22;319;48.764;9.174;2022-09-09T00:38:16;18.40;95.50
674;DHT22;319;48.764;9.174;2022-09-09T00:40:50;18.40;95.40
674;DHT22;319;48.764;9.174;2022-09-09T00:43:27;18.50;95.70
674;DHT22;319;48.764;9.174;2022-09-09T00:46:21;18.50;95.80
674;DHT22;319;48.764;9.174;2022-09-09T00:48:57;18.50;96.10
674;DHT22;319;48.764;9.174;2022-09-09T00:51:35;18.60;95.50
674;DHT22;319;48.764;9.174;2022-09-09T00:54:27;18.50;95.20
674;DHT22;319;48.764;9.174;2022-09-09T00:57:05;18.60;95.10
674;DHT22;319;48.764;9.174;2022-09-09T00:59:42;18.60;95.10
674;DHT22;319;48.764;9.174;2022-09-09T01:02:18;18.70;94.90
674;DHT22;319;48.764;9.174;2022-09-09T01:04:48;18.60;94.90
674;DHT22;319;48.764;9.174;2022-09-09T01:07:17;18.70;94.90
674;DHT22;319;48.764;9.174;2022-09-09T01:09:56;18.70;94.80
674;DHT22;319;48.764;9.174;2022-09-09T01:12:37;18.70;94.60
674;DHT22;319;48.764;9.174;2022-09-09T01:15:10;18.70;94.50
674;DHT22;319;48.764;9.174;2022-09-09T01:17:50;18.70;94.60
674;DHT22;319;48.764;9.174;2022-09-09T01:20:22;18.80;94.80
674;DHT22;319;48.764;9.174;2022-09-09T01:23:00;18.70;95.00
674;DHT22;319;48.764;9.174;2022-09-09T01:26:09;18.70;95.20
674;DHT22;319;48.764;9.174;2022-09-09T01:28:39;18.70;95.30
674;DHT22;319;48.764;9.174;2022-09-09T01:31:08;18.60;94.90
674;DHT22;319;48.764;9.174;2022-09-09T01:33:37;18.60;95.00
674;DHT22;319;48.764;9.174;2022-09-09T01:36:07;18.60;94.90
674;DHT22;319;48.764;9.174;2022-09-09T01:38:36;18.60;94.80
674;DHT22;319;48.764;9.174;2022-09-09T01:41:05;18.50;94.80
674;DHT22;319;48.764;9.174;2022-09-09T01:43:32;18.50;95.00
674;DHT22;319;48.764;9.174;2022-09-09T01:46:01;18.60;95.10
674;DHT22;319;48.764;9.174;2022-09-09T01:48:28;18.60;95.20
674;DHT22;319;48.764;9.174;2022-09-09T01:50:56;18.60;95.40
674;DHT22;319;48.764;9.174;2022-09-09T01:53:23;18.60;95.60
674;DHT22;319;48.764;9.174;2022-09-09T01:56:01;18.60;95.60
674;DHT22;319;48.764;9.174;2022-09-09T01:58:41;18.60;95.60
674;DHT22;319;48.764;9.174;2022-09-09T02:01:18;18.50;95.40
674;DHT22;319;48.764;9.174;2022-09-09T02:03:52;18.50;95.30
674;DHT22;319;48.764;9.174;2022-09-09T02:06:27;18.50;95.20
674;DHT22;319;48.764;9.174;2022-09-09T02:08:56;18.50;95.40
674;DHT22;319;48.764;9.174;2022-09-09T02:11:27;18.50;95.20
674;DHT22;319;48.764;9.174;2022-09-09T02:14:00;18.50;95.00
674;DHT22;319;48.764;9.174;2022-09-09T02:16:31;18.50;94.90
674;DHT22;319;48.764;9.174;2022-09-09T02:19:02;18.50;94.80
674;DHT22;319;48.764;9.174;2022-09-09T02:21:31;18.50;95.00
674;DHT22;319;48.764;9.174;2022-09-09T02:24:02;18.50;95.20
674;DHT22;319;48.764;9.174;2022-09-09T02:26:32;18.50;95.60
674;DHT22;319;48.764;9.174;2022-09-09T02:29:05;18.40;96.00
674;DHT22;319;48.764;9.174;2022-09-09T02:31:34;18.30;96.10
674;DHT22;319;48.764;9.174;2022-09-09T02:34:03;18.20;96.40
674;DHT22;319;48.764;9.174;2022-09-09T02:36:33;18.10;96.50
674;DHT22;319;48.764;9.174;2022-09-09T02:39:01;18.10;96.70
674;DHT22;319;48.764;9.174;2022-09-09T02:41:32;18.00;96.70
674;DHT22;319;48.764;9.174;2022-09-09T02:43:59;17.90;97.00
674;DHT22;319;48.764;9.174;2022-09-09T02:46:53;17.80;97.20
674;DHT22;319;48.764;9.174;2022-09-09T02:49:30;17.70;97.30
674;DHT22;319;48.764;9.174;2022-09-09T02:52:02;17.70;97.10
674;DHT22;319;48.764;9.174;2022-09-09T02:54:32;17.70;97.20
674;DHT22;319;48.764;9.174;2022-09-09T02:57:03;17.80;97.10
674;DHT22;319;48.764;9.174;2022-09-09T02:59:33;17.80;97.20
674;DHT22;319;48.764;9.174;2022-09-09T03:02:01;17.70;97.10
674;DHT22;319;48.764;9.174;2022-09-09T03:04:28;17.80;96.80
674;DHT22;319;48.764;9.174;2022-09-09T03:06:57;17.80;96.70
674;DHT22;319;48.764;9.174;2022-09-09T03:09:24;17.80;96.70
674;DHT22;319;48.764;9.174;2022-09-09T03:11:51;17.80;96.70
674;DHT22;319;48.764;9.174;2022-09-09T03:14:20;17.90;96.90
674;DHT22;319;48.764;9.174;2022-09-09T03:16:50;17.90;96.70
674;DHT22;319;48.764;9.174;2022-09-09T03:19:18;18.00;96.60
674;DHT22;319;48.764;9.174;2022-09-09T03:21:45;18.10;96.50
674;DHT22;319;48.764;9.174;2022-09-09T03:24:12;18.10;96.30
674;DHT22;319;48.764;9.174;2022-09-09T03:26:40;18.20;96.10
674;DHT22;319;48.764;9.174;2022-09-09T03:29:10;18.20;96.20
674;DHT22;319;48.764;9.174;2022-09-09T03:31:38;18.20;96.10
674;DHT22;319;48.764;9.174;2022-09-09T03:34:05;18.10;96.40
674;DHT22;319;48.764;9.174;2022-09-09T03:36:33;18.10;96.80
674;DHT22;319;48.764;9.174;2022-09-09T03:39:00;18.00;96.50
674;DHT22;319;48.764;9.174;2022-09-09T03:41:28;18.00;96.50
674;DHT22;319;48.764;9.174;2022-09-09T03:43:56;18.00;96.30
674;DHT22;319;48.764;9.174;2022-09-09T03:46:25;17.90;96.30
674;DHT22;319;48.764;9.174;2022-09-09T03:48:52;18.00;96.20
674;DHT22;319;48.764;9.174;2022-09-09T03:51:19;18.10;96.20
674;DHT22;319;48.764;9.174;2022-09-09T03:53:48;18.10;96.10
674;DHT22;319;48.764;9.174;2022-09-09T03:56:15;18.10;96.10
674;DHT22;319;48.764;9.174;2022-09-09T03:58:42;18.20;96.10
674;DHT22;319;48.764;9.174;2022-09-09T04:01:11;18.20;96.10
674;DHT22;319;48.764;9.174;2022-09-09T04:03:38;18.20;96.10
674;DHT22;319;48.764;9.174;2022-09-09T04:06:08;18.30;96.10
674;DHT22;319;48.764;9.174;2022-09-09T04:08:37;18.10;96.10
674;DHT22;319;48.764;9.174;2022-09-09T04:11:06;18.10;96.20
674;DHT22;319;48.764;9.174;2022-09-09T04:13:33;18.10;96.30
674;DHT22;319;48.764;9.174;2022-09-09T04:16:01;18.10;96.30
674;DHT22;319;48.764;9.174;2022-09-09T04:18:29;17.90;96.50
674;DHT22;319;48.764;9.174;2022-09-09T04:20:56;17.80;96.70
674;DHT22;319;48.764;9.174;2022-09-09T04:23:26;17.70;97.00
674;DHT22;319;48.764;9.174;2022-09-09T04:25:55;17.60;97.10
674;DHT22;319;48.764;9.174;2022-09-09T04:28:25;17.60;97.30
674;DHT22;319;48.764;9.174;2022-09-09T04:30:53;17.60;97.40
674;DHT22;319;48.764;9.174;2022-09-09T04:33:20;17.60;97.50
674;DHT22;319;48.764;9.174;2022-09-09T04:35:49;17.60;97.40
674;DHT22;319;48.764;9.174;2022-09-09T04:38:19;17.60;97.50
674;DHT22;319;48.764;9.174;2022-09-09T04:40:49;17.50;97.50
674;DHT22;319;48.764;9.174;2022-09-09T04:43:17;17.50;97.60
674;DHT22;319;48.764;9.174;2022-09-09T04:45:48;17.50;97.60
674;DHT22;319;48.764;9.174;2022-09-09T04:48:15;17.60;97.60
674;DHT22;319;48.764;9.174;2022-09-09T04:50:42;17.60;97.60
674;DHT22;319;48.764;9.174;2022-09-09T04:53:09;17.50;97.70
674;DHT22;319;48.764;9.174;2022-09-09T04:55:36;17.50;97.80
674;DHT22;319;48.764;9.174;2022-09-09T04:58:04;17.50;97.90
674;DHT22;319;48.764;9.174;2022-09-09T05:00:31;17.50;97.90
674;DHT22;319;48.764;9.174;2022-09-09T05:03:02;17.40;98.00
674;DHT22;319;48.764;9.174;2022-09-09T05:05:29;17.40;98.10
674;DHT22;319;48.764;9.174;2022-09-09T05:08:01;17.40;98.00
674;DHT22;319;48.764;9.174;2022-09-09T05:10:28;17.40;98.00
674;DHT22;319;48.764;9.174;2022-09-09T05:12:55;17.40;98.10
674;DHT22;319;48.764;9.174;2022-09-09T05:15:22;17.40;98.20
674;DHT22;319;48.764;9.174;2022-09-09T05:17:49;17.40;98.10
674;DHT22;319;48.764;9.174;2022-09-09T05:20:19;17.50;98.50
674;DHT22;319;48.764;9.174;2022-09-09T05:22:47;17.50;98.10
674;DHT22;319;48.764;9.174;2022-09-09T05:25:15;17.50;97.90
674;DHT22;319;48.764;9.174;2022-09-09T05:27:41;17.60;98.00
674;DHT22;319;48.764;9.174;2022-09-09T05:30:09;17.60;98.00
674;DHT22;319;48.764;9.174;2022-09-09T05:32:36;17.70;97.80
674;DHT22;319;48.764;9.174;2022-09-09T05:35:04;17.90;97.70
674;DHT22;319;48.764;9.174;2022-09-09T05:37:32;18.00;97.50
674;DHT22;319;48.764;9.174;2022-09-09T05:39:59;18.00;97.50
674;DHT22;319;48.764;9.174;2022-09-09T05:42:30;18.10;97.50
674;DHT22;319;48.764;9.174;2022-09-09T05:44:57;18.30;97.40
674;DHT22;319;48.764;9.174;2022-09-09T05:47:24;18.40;97.30
674;DHT22;319;48.764;9.174;2022-09-09T05:49:53;18.40;97.00
674;DHT22;319;48.764;9.174;2022-09-09T05:52:20;18.50;97.00
674;DHT22;319;48.764;9.174;2022-09-09T05:54:49;18.50;96.70
674;DHT22;319;48.764;9.174;2022-09-09T05:57:17;18.70;96.60
674;DHT22;319;48.764;9.174;2022-09-09T05:59:45;18.70;96.40
674;DHT22;319;48.764;9.174;2022-09-09T06:02:12;18.80;96.30
674;DHT22;319;48.764;9.174;2022-09-09T06:04:39;18.80;96.10
674;DHT22;319;48.764;9.174;2022-09-09T06:07:06;18.80;96.30
674;DHT22;319;48.764;9.174;2022-09-09T06:09:35;18.70;96.30
674;DHT22;319;48.764;9.174;2022-09-09T06:12:04;18.70;96.40
674;DHT22;319;48.764;9.174;2022-09-09T06:14:31;18.70;96.50
674;DHT22;319;48.764;9.174;2022-09-09T06:17:01;18.70;96.50
674;DHT22;319;48.764;9.174;2022-09-09T06:19:27;18.70;96.60
674;DHT22;319;48.764;9.174;2022-09-09T06:21:56;18.70;96.70
674;DHT22;319;48.764;9.174;2022-09-09T06:24:24;18.80;96.70
674;DHT22;319;48.764;9.174;2022-09-09T06:26:51;18.80;96.70
674;DHT22;319;48.764;9.174;2022-09-09T06:29:19;18.80;96.70
674;DHT22;319;48.764;9.174;2022-09-09T06:31:46;18.90;96.70
674;DHT22;319;48.764;9.174;2022-09-09T06:34:13;18.90;96.60
674;DHT22;319;48.764;9.174;2022-09-09T06:36:40;19.00;96.70
674;DHT22;319;48.764;9.174;2022-09-09T06:39:07;19.00;96.70
674;DHT22;319;48.764;9.174;2022-09-09T06:41:37;19.00;96.70
674;DHT22;319;48.764;9.174;2022-09-09T06:44:04;19.10;96.50
674;DHT22;319;48.764;9.174;2022-09-09T06:46:32;19.20;96.50
674;DHT22;319;48.764;9.174;2022-09-09T06:49:01;19.30;96.40
674;DHT22;319;48.764;9.174;2022-09-09T06:51:29;19.40;96.30
674;DHT22;319;48.764;9.174;2022-09-09T06:53:58;19.40;96.20
674;DHT22;319;48.764;9.174;2022-09-09T06:56:27;19.50;96.00
674;DHT22;319;48.764;9.174;2022-09-09T06:58:56;19.70;96.00
674;DHT22;319;48.764;9.174;2022-09-09T07:01:25;19.80;95.70
674;DHT22;319;48.764;9.174;2022-09-09T07:03:55;19.90;95.60
674;DHT22;319;48.764;9.174;2022-09-09T07:06:25;20.10;95.40
674;DHT22;319;48.764;9.174;2022-09-09T07:08:53;20.30;95.40
674;DHT22;319;48.764;9.174;2022-09-09T07:11:22;20.40;95.10
674;DHT22;319;48.764;9.174;2022-09-09T07:13:49;20.50;94.90
674;DHT22;319;48.764;9.174;2022-09-09T07:16:19;20.70;94.70
674;DHT22;319;48.764;9.174;2022-09-09T07:18:47;20.80;94.60
674;DHT22;319;48.764;9.174;2022-09-09T07:21:18;21.00;94.20
674;DHT22;319;48.764;9.174;2022-09-09T07:23:46;21.00;93.90
674;DHT22;319;48.764;9.174;2022-09-09T07:26:14;21.20;93.90
674;DHT22;319;48.764;9.174;2022-09-09T07:28:42;21.60;93.40
674;DHT22;319;48.764;9.174;2022-09-09T07:31:14;21.90;92.80
674;DHT22;319;48.764;9.174;2022-09-09T07:33:43;22.30;92.70
674;DHT22;319;48.764;9.174;2022-09-09T07:36:13;22.80;91.50
674;DHT22;319;48.764;9.174;2022-09-09T07:38:43;22.90;90.90
674;DHT22;319;48.764;9.174;2022-09-09T07:41:12;22.80;90.70
674;DHT22;319;48.764;9.174;2022-09-09T07:43:40;23.10;90.70
674;DHT22;319;48.764;9.174;2022-09-09T07:46:08;23.90;90.00
674;DHT22;319;48.764;9.174;2022-09-09T07:48:35;25.00;87.50
674;DHT22;319;48.764;9.174;2022-09-09T07:51:05;26.00;83.50
674;DHT22;319;48.764;9.174;2022-09-09T07:53:34;26.60;79.20
674;DHT22;319;48.764;9.174;2022-09-09T07:56:08;27.60;77.20
674;DHT22;319;48.764;9.174;2022-09-09T07:58:36;27.90;74.00
674;DHT22;319;48.764;9.174;2022-09-09T08:01:07;28.10;72.40
674;DHT22;319;48.764;9.174;2022-09-09T08:03:35;28.40;71.50
674;DHT22;319;48.764;9.174;2022-09-09T08:06:02;28.70;68.70
674;DHT22;319;48.764;9.174;2022-09-09T08:08:30;29.00;67.60
674;DHT22;319;48.764;9.174;2022-09-09T08:11:06;29.50;65.80
674;DHT22;319;48.764;9.174;2022-09-09T08:13:34;29.90;64.00
674;DHT22;319;48.764;9.174;2022-09-09T08:16:06;29.90;62.00
674;DHT22;319;48.764;9.174;2022-09-09T08:18:34;30.00;62.50
674;DHT22;319;48.764;9.174;2022-09-09T08:21:09;30.10;61.20
674;DHT22;319;48.764;9.174;2022-09-09T08:23:37;30.00;60.60
674;DHT22;319;48.764;9.174;2022-09-09T08:26:09;30.00;60.70
674;DHT22;319;48.764;9.174;2022-09-09T08:28:37;30.10;60.70
674;DHT22;319;48.764;9.174;2022-09-09T08:31:06;30.20;60.20
674;DHT22;319;48.764;9.174;2022-09-09T08:33:33;30.70;59.60
674;DHT22;319;48.764;9.174;2022-09-09T08:36:02;30.60;59.20
674;DHT22;319;48.764;9.174;2022-09-09T08:38:29;30.60;59.40
674;DHT22;319;48.764;9.174;2022-09-09T08:41:03;30.50;58.10
674;DHT22;319;48.764;9.174;2022-09-09T08:43:34;29.90;58.90
674;DHT22;319;48.764;9.174;2022-09-09T08:46:08;29.50;59.60
674;DHT22;319;48.764;9.174;2022-09-09T08:48:47;29.10;60.30
674;DHT22;319;48.764;9.174;2022-09-09T08:51:20;28.80;61.80
674;DHT22;319;48.764;9.174;2022-09-09T08:53:50;28.40;62.60
674;DHT22;319;48.764;9.174;2022-09-09T08:56:21;28.30;63.00
674;DHT22;319;48.764;9.174;2022-09-09T08:58:52;28.10;63.00
674;DHT22;319;48.764;9.174;2022-09-09T09:01:35;27.50;63.90
674;DHT22;319;48.764;9.174;2022-09-09T09:04:15;27.00;63.70
674;DHT22;319;48.764;9.174;2022-09-09T09:06:53;26.90;64.10
674;DHT22;319;48.764;9.174;2022-09-09T09:09:27;26.90;63.80
674;DHT22;319;48.764;9.174;2022-09-09T09:11:58;26.50;63.30
674;DHT22;319;48.764;9.174;2022-09-09T09:14:30;26.00;65.00
674;DHT22;319;48.764;9.174;2022-09-09T09:17:02;25.50;66.30
674;DHT22;319;48.764;9.174;2022-09-09T09:19:32;25.20;67.80
674;DHT22;319;48.764;9.174;2022-09-09T09:22:06;24.80;69.70
674;DHT22;319;48.764;9.174;2022-09-09T09:24:42;24.70;72.40
674;DHT22;319;48.764;9.174;2022-09-09T09:27:13;24.20;76.00
674;DHT22;319;48.764;9.174;2022-09-09T09:29:43;23.80;79.20
674;DHT22;319;48.764;9.174;2022-09-09T09:32:13;23.40;81.40
674;DHT22;319;48.764;9.174;2022-09-09T09:34:42;23.10;82.70
674;DHT22;319;48.764;9.174;2022-09-09T09:37:16;22.40;86.50
674;DHT22;319;48.764;9.174;2022-09-09T09:39:45;21.70;90.20
674;DHT22;319;48.764;9.174;2022-09-09T09:42:14;21.20;90.40
674;DHT22;319;48.764;9.174;2022-09-09T09:44:44;21.20;91.20
674;DHT22;319;48.764;9.174;2022-09-09T09:47:13;21.40;91.10
674;DHT22;319;48.764;9.174;2022-09-09T09:49:51;21.60;91.50
674;DHT22;319;48.764;9.174;2022-09-09T09:52:21;21.90;91.90
674;DHT22;319;48.764;9.174;2022-09-09T09:54:50;22.20;91.90
674;DHT22;319;48.764;9.174;2022-09-09T09:57:18;22.40;91.10
674;DHT22;319;48.764;9.174;2022-09-09T10:00:01;22.50;90.70
674;DHT22;319;48.764;9.174;2022-09-09T10:02:37;22.60;91.20
674;DHT22;319;48.764;9.174;2022-09-09T10:05:09;22.80;90.50
674;DHT22;319;48.764;9.174;2022-09-09T10:07:38;22.90;91.00
674;DHT22;319;48.764;9.174;2022-09-09T10:10:10;23.10;90.30
674;DHT22;319;48.764;9.174;2022-09-09T10:12:46;23.30;90.00
674;DHT22;319;48.764;9.174;2022-09-09T10:15:29;23.40;88.80
674;DHT22;319;48.764;9.174;2022-09-09T10:18:01;23.40;88.90
674;DHT22;319;48.764;9.174;2022-09-09T10:20:36;23.40;88.70
674;DHT22;319;48.764;9.174;2022-09-09T10:23:21;23.50;89.20
674;DHT22;319;48.764;9.174;2022-09-09T10:26:05;23.50;89.40
674;DHT22;319;48.764;9.174;2022-09-09T10:28:49;23.40;88.90
674;DHT22;319;48.764;9.174;2022-09-09T10:31:27;23.40;88.80
674;DHT22;319;48.764;9.174;2022-09-09T10:34:03;23.40;88.50
674;DHT22;319;48.764;9.174;2022-09-09T10:36:32;23.50;88.70
674;DHT22;319;48.764;9.174;2022-09-09T10:39:03;23.50;89.40
674;DHT22;319;48.764;9.174;2022-09-09T10:41:42;23.60;87.70
674;DHT22;319;48.764;9.174;2022-09-09T10:44:17;23.60;88.50
674;DHT22;319;48.764;9.174;2022-09-09T10:47:22;23.60;88.60
674;DHT22;319;48.764;9.174;2022-09-09T10:52:56;23.60;88.60
674;DHT22;319;48.764;9.174;2022-09-09T10:55:33;23.70;88.70
674;DHT22;319;48.764;9.174;2022-09-09T10:58:03;23.80;88.30
674;DHT22;319;48.764;9.174;2022-09-09T11:00:41;23.90;88.00
674;DHT22;319;48.764;9.174;2022-09-09T11:03:15;24.20;87.60
674;DHT22;319;48.764;9.174;2022-09-09T11:05:47;24.40;87.50
674;DHT22;319;48.764;9.174;2022-09-09T11:08:19;24.70;85.80
674;DHT22;319;48.764;9.174;2022-09-09T11:10:50;24.60;85.60
674;DHT22;319;48.764;9.174;2022-09-09T11:13:31;24.50;84.80
674;DHT22;319;48.764;9.174;2022-09-09T11:16:11;24.30;83.90
674;DHT22;319;48.764;9.174;2022-09-09T11:18:43;24.40;83.00
674;DHT22;319;48.764;9.174;2022-09-09T11:21:21;24.60;82.70
674;DHT22;319;48.764;9.174;2022-09-09T11:23:52;24.70;81.50
674;DHT22;319;48.764;9.174;2022-09-09T11:26:28;24.20;78.50
674;DHT22;319;48.764;9.174;2022-09-09T11:29:06;24.00;77.70
674;DHT22;319;48.764;9.174;2022-09-09T11:31:44;23.70;75.40
674;DHT22;319;48.764;9.174;2022-09-09T11:34:24;23.50;75.20
674;DHT22;319;48.764;9.174;2022-09-09T11:37:13;23.30;76.00
674;DHT22;319;48.764;9.174;2022-09-09T11:40:15;23.30;76.70
674;DHT22;319;48.764;9.174;2022-09-09T11:42:45;23.00;78.40
674;DHT22;319;48.764;9.174;2022-09-09T11:45:23;22.90;79.50
674;DHT22;319;48.764;9.174;2022-09-09T11:47:54;23.10;79.80
674;DHT22;319;48.764;9.174;2022-09-09T11:50:32;23.20;78.80
674;DHT22;319;48.764;9.174;2022-09-09T11:53:14;23.10;78.50
674;DHT22;319;48.764;9.174;2022-09-09T11:55:42;23.20;78.40
674;DHT22;319;48.764;9.174;2022-09-09T11:58:16;23.10;78.40
674;DHT22;319;48.764;9.174;2022-09-09T12:00:45;23.20;78.90
674;DHT22;319;48.764;9.174;2022-09-09T12:03:39;23.30;78.60
674;DHT22;319;48.764;9.174;2022-09-09T12:06:16;23.50;77.10
674;DHT22;319;48.764;9.174;2022-09-09T12:08:48;23.80;76.50
674;DHT22;319;48.764;9.174;2022-09-09T12:11:28;24.00;75.50
674;DHT22;319;48.764;9.174;2022-09-09T12:13:58;24.00;74.90
674;DHT22;319;48.764;9.174;2022-09-09T12:16:39;23.90;75.10
674;DHT22;319;48.764;9.174;2022-09-09T12:19:15;23.90;75.00
674;DHT22;319;48.764;9.174;2022-09-09T12:21:51;23.90;75.30
674;DHT22;319;48.764;9.174;2022-09-09T12:24:26;23.90;75.10
674;DHT22;319;48.764;9.174;2022-09-09T12:26:58;24.10;74.90
674;DHT22;319;48.764;9.174;2022-09-09T12:29:32;24.20;73.40
674;DHT22;319;48.764;9.174;2022-09-09T12:32:06;24.40;73.00
674;DHT22;319;48.764;9.174;2022-09-09T12:34:38;24.60;71.60
674;DHT22;319;48.764;9.174;2022-09-09T12:37:27;24.70;69.90
674;DHT22;319;48.764;9.174;2022-09-09T12:39:57;24.60;68.20
674;DHT22;319;48.764;9.174;2022-09-09T12:42:25;24.50;66.90
674;DHT22;319;48.764;9.174;2022-09-09T12:44:54;24.40;67.10
674;DHT22;319;48.764;9.174;2022-09-09T12:47:24;24.10;68.20
674;DHT22;319;48.764;9.174;2022-09-09T12:49:52;23.80;69.70
674;DHT22;319;48.764;9.174;2022-09-09T12:52:27;23.80;70.60
674;DHT22;319;48.764;9.174;2022-09-09T12:54:57;23.80;71.20
674;DHT22;319;48.764;9.174;2022-09-09T12:57:26;23.90;71.70
674;DHT22;319;48.764;9.174;2022-09-09T13:00:10;23.90;72.70
674;DHT22;319;48.764;9.174;2022-09-09T13:02:49;23.80;72.00
674;DHT22;319;48.764;9.174;2022-09-09T13:05:19;23.90;73.00
674;DHT22;319;48.764;9.174;2022-09-09T13:07:48;23.90;73.00
674;DHT22;319;48.764;9.174;2022-09-09T13:10:22;23.80;72.80
674;DHT22;319;48.764;9.174;2022-09-09T13:12:50;23.50;74.00
674;DHT22;319;48.764;9.174;2022-09-09T13:15:21;23.50;74.60
674;DHT22;319;48.764;9.174;2022-09-09T13:17:54;23.50;73.00
674;DHT22;319;48.764;9.174;2022-09-09T13:20:22;23.40;73.00
674;DHT22;319;48.764;9.174;2022-09-09T13:22:53;23.50;73.30
674;DHT22;319;48.764;9.174;2022-09-09T13:25:23;23.70;73.10
674;DHT22;319;48.764;9.174;2022-09-09T13:27:54;24.10;72.30
674;DHT22;319;48.764;9.174;2022-09-09T13:30:24;24.40;71.00
674;DHT22;319;48.764;9.174;2022-09-09T13:33:03;24.70;70.20
674;DHT22;319;48.764;9.174;2022-09-09T13:35:32;24.90;69.20
674;DHT22;319;48.764;9.174;2022-09-09T13:38:07;24.90;68.40
674;DHT22;319;48.764;9.174;2022-09-09T13:40:35;24.80;67.80
674;DHT22;319;48.764;9.174;2022-09-09T13:43:02;24.70;66.40
674;DHT22;319;48.764;9.174;2022-09-09T13:45:30;24.40;66.10
674;DHT22;319;48.764;9.174;2022-09-09T13:48:09;24.10;66.70
674;DHT22;319;48.764;9.174;2022-09-09T13:50:36;24.00;68.50
674;DHT22;319;48.764;9.174;2022-09-09T13:53:04;23.90;68.20
674;DHT22;319;48.764;9.174;2022-09-09T13:55:31;24.00;68.90
674;DHT22;319;48.764;9.174;2022-09-09T13:58:00;24.10;69.20
674;DHT22;319;48.764;9.174;2022-09-09T14:00:30;24.20;69.50
674;DHT22;319;48.764;9.174;2022-09-09T14:02:57;24.20;68.60
674;DHT22;319;48.764;9.174;2022-09-09T14:05:25;24.50;68.10
674;DHT22;319;48.764;9.174;2022-09-09T14:07:53;24.60;67.70
674;DHT22;319;48.764;9.174;2022-09-09T14:10:21;24.60;66.70
674;DHT22;319;48.764;9.174;2022-09-09T14:12:48;24.60;66.10
674;DHT22;319;48.764;9.174;2022-09-09T14:15:15;24.70;66.10
674;DHT22;319;48.764;9.174;2022-09-09T14:17:42;24.80;66.10
674;DHT22;319;48.764;9.174;2022-09-09T14:20:10;24.90;65.60
674;DHT22;319;48.764;9.174;2022-09-09T14:22:41;24.70;65.00
674;DHT22;319;48.764;9.174;2022-09-09T14:25:08;24.80;65.50
674;DHT22;319;48.764;9.174;2022-09-09T14:27:36;24.70;65.30
674;DHT22;319;48.764;9.174;2022-09-09T14:30:05;24.60;65.90
674;DHT22;319;48.764;9.174;2022-09-09T14:32:32;24.50;65.90
674;DHT22;319;48.764;9.174;2022-09-09T14:34:59;24.40;64.70
674;DHT22;319;48.764;9.174;2022-09-09T14:37:27;24.50;65.00
674;DHT22;319;48.764;9.174;2022-09-09T14:39:56;24.60;64.60
674;DHT22;319;48.764;9.174;2022-09-09T14:42:23;24.60;64.40
674;DHT22;319;48.764;9.174;2022-09-09T14:44:52;24.50;63.50
674;DHT22;319;48.764;9.174;2022-09-09T14:47:19;24.50;63.90
674;DHT22;319;48.764;9.174;2022-09-09T14:49:46;24.40;64.40
674;DHT22;319;48.764;9.174;2022-09-09T14:52:15;24.40;64.20
674;DHT22;319;48.764;9.174;2022-09-09T14:54:42;24.40;64.40
674;DHT22;319;48.764;9.174;2022-09-09T14:57:09;24.50;64.00
674;DHT22;319;48.764;9.174;2022-09-09T14:59:36;24.40;63.30
674;DHT22;319;48.764;9.174;2022-09-09T15:02:05;24.50;63.90
674;DHT22;319;48.764;9.174;2022-09-09T15:04:32;24.50;64.00
674;DHT22;319;48.764;9.174;2022-09-09T15:06:59;24.50;63.30
674;DHT22;319;48.764;9.174;2022-09-09T15:09:26;24.40;63.00
674;DHT22;319;48.764;9.174;2022-09-09T15:11:53;24.30;63.00
674;DHT22;319;48.764;9.174;2022-09-09T15:14:20;24.10;62.30
674;DHT22;319;48.764;9.174;2022-09-09T15:16:47;24.10;62.90
674;DHT22;319;48.764;9.174;2022-09-09T15:19:15;24.00;63.00
674;DHT22;319;48.764;9.174;2022-09-09T15:21:42;23.90;63.60
674;DHT22;319;48.764;9.174;2022-09-09T15:24:10;23.80;63.90
674;DHT22;319;48.764;9.174;2022-09-09T15:26:37;23.70;64.30
674;DHT22;319;48.764;9.174;2022-09-09T15:29:05;23.70;64.60
674;DHT22;319;48.764;9.174;2022-09-09T15:31:32;23.80;64.70
674;DHT22;319;48.764;9.174;2022-09-09T15:34:01;23.90;64.60
674;DHT22;319;48.764;9.174;2022-09-09T15:36:31;24.00;64.60
674;DHT22;319;48.764;9.174;2022-09-09T15:38:59;23.90;64.50
674;DHT22;319;48.764;9.174;2022-09-09T15:41:27;23.90;64.40
674;DHT22;319;48.764;9.174;2022-09-09T15:43:55;23.90;64.70
674;DHT22;319;48.764;9.174;2022-09-09T15:46:25;23.90;64.50
674;DHT22;319;48.764;9.174;2022-09-09T15:48:55;23.80;64.70
674;DHT22;319;48.764;9.174;2022-09-09T15:51:22;23.70;65.00
674;DHT22;319;48.764;9.174;2022-09-09T15:53:55;23.70;65.40
674;DHT22;319;48.764;9.174;2022-09-09T15:56:25;23.60;65.30
674;DHT22;319;48.764;9.174;2022-09-09T15:58:57;23.40;65.20
674;DHT22;319;48.764;9.174;2022-09-09T16:01:26;23.30;65.10
674;DHT22;319;48.764;9.174;2022-09-09T16:03:53;23.10;65.30
674;DHT22;319;48.764;9.174;2022-09-09T16:06:21;23.10;65.60
674;DHT22;319;48.764;9.174;2022-09-09T16:08:51;23.00;65.30
674;DHT22;319;48.764;9.174;2022-09-09T16:11:21;23.10;65.40
674;DHT22;319;48.764;9.174;2022-09-09T16:13:50;23.00;65.00
674;DHT22;319;48.764;9.174;2022-09-09T16:16:19;23.00;65.00
674;DHT22;319;48.764;9.174;2022-09-09T16:18:49;23.00;65.30
674;DHT22;319;48.764;9.174;2022-09-09T16:21:18;23.00;65.80
674;DHT22;319;48.764;9.174;2022-09-09T16:23:45;23.00;65.90
674;DHT22;319;48.764;9.174;2022-09-09T16:26:14;23.00;65.80
674;DHT22;319;48.764;9.174;2022-09-09T16:28:43;23.00;65.80
674;DHT22;319;48.764;9.174;2022-09-09T16:31:14;23.00;66.00
674;DHT22;319;48.764;9.174;2022-09-09T16:33:41;23.00;66.30
674;DHT22;319;48.764;9.174;2022-09-09T16:36:10;22.90;66.90
674;DHT22;319;48.764;9.174;2022-09-09T16:38:37;22.80;67.60
674;DHT22;319;48.764;9.174;2022-09-09T16:41:06;22.90;68.00
674;DHT22;319;48.764;9.174;2022-09-09T16:43:35;22.70;69.00
674;DHT22;319;48.764;9.174;2022-09-09T16:46:12;22.40;70.90
674;DHT22;319;48.764;9.174;2022-09-09T16:48:41;22.10;72.50
674;DHT22;319;48.764;9.174;2022-09-09T16:51:13;22.00;73.30
674;DHT22;319;48.764;9.174;2022-09-09T16:53:41;22.00;72.70
674;DHT22;319;48.764;9.174;2022-09-09T16:56:11;21.90;72.40
674;DHT22;319;48.764;9.174;2022-09-09T16:58:38;21.90;71.90
674;DHT22;319;48.764;9.174;2022-09-09T17:01:07;21.80;72.20
674;DHT22;319;48.764;9.174;2022-09-09T17:03:34;21.80;72.60